sensor_id;sensor_type;location;lat;lon;timestamp;temperature;humidity
45044;DHT22;30784;48.490;9.688;2023-02-04T00:02:24;7.90;70.70
45044;DHT22;30784;48.490;9.688;2023-02-04T00:04:49;7.90;70.80
45044;DHT22;30784;48.490;9.688;2023-02-04T00:07:15;7.90;70.80
45044;DHT22;30784;48.490;9.688;2023-02-04T00:09:43;7.90;70.70
45044;DHT22;30784;48.490;9.688;2023-02-04T00:12:11;8.00;70.60
45044;DHT22;30784;48.490;9.688;2023-02-04T00:14:36;8.00;70.60
45044;DHT22;30784;48.490;9.688;2023-02-04T00:17:02;8.00;70.40
45044;DHT22;30784;48.490;9.688;2023-02-04T00:19:27;8.00;70.30
45044;DHT22;30784;48.490;9.688;2023-02-04T00:21:53;8.00;70.40
45044;DHT22;30784;48.490;9.688;2023-02-04T00:24:18;8.00;70.30
45044;DHT22;30784;48.490;9.688;2023-02-04T00:26:44;8.00;70.30
45044;DHT22;30784;48.490;9.688;2023-02-04T00:29:09;8.00;70.30
45044;DHT22;30784;48.490;9.688;2023-02-04T00:31:35;8.10;70.40
45044;DHT22;30784;48.490;9.688;2023-02-04T00:34:00;8.10;70.30
45044;DHT22;30784;48.490;9.688;2023-02-04T00:36:26;8.10;70.30
45044;DHT22;30784;48.490;9.688;2023-02-04T00:38:51;8.10;70.40
45044;DHT22;30784;48.490;9.688;2023-02-04T00:41:17;8.10;70.50
45044;DHT22;30784;48.490;9.688;2023-02-04T00:43:43;8.10;70.50
45044;DHT22;30784;48.490;9.688;2023-02-04T00:46:08;8.10;70.50
45044;DHT22;30784;48.490;9.688;2023-02-04T00:48:33;8.10;70.50
45044;DHT22;30784;48.490;9.688;2023-02-04T00:51:00;8.10;70.50
45044;DHT22;30784;48.490;9.688;2023-02-04T00:53:25;8.10;70.50
45044;DHT22;30784;48.490;9.688;2023-02-04T00:55:51;8.20;70.50
45044;DHT22;30784;48.490;9.688;2023-02-04T00:58:16;8.20;70.50
45044;DHT22;30784;48.490;9.688;2023-02-04T01:00:42;8.20;70.40
45044;DHT22;30784;48.490;9.688;2023-02-04T01:03:07;8.20;70.20
45044;DHT22;30784;48.490;9.688;2023-02-04T01:05:33;8.20;70.30
45044;DHT22;30784;48.490;9.688;2023-02-04T01:07:59;8.20;70.30
45044;DHT22;30784;48.490;9.688;2023-02-04T01:10:24;8.20;70.20
45044;DHT22;30784;48.490;9.688;2023-02-04T01:12:50;8.20;70.20
45044;DHT22;30784;48.490;9.688;2023-02-04T01:15:16;8.20;70.10
45044;DHT22;30784;48.490;9.688;2023-02-04T01:17:42;8.20;69.90
45044;DHT22;30784;48.490;9.688;2023-02-04T01:20:08;8.20;69.70
45044;DHT22;30784;48.490;9.688;2023-02-04T01:22:34;8.10;69.60
45044;DHT22;30784;48.490;9.688;2023-02-04T01:24:59;8.20;69.60
45044;DHT22;30784;48.490;9.688;2023-02-04T01:27:25;8.10;69.40
45044;DHT22;30784;48.490;9.688;2023-02-04T01:29:50;8.10;69.40
45044;DHT22;30784;48.490;9.688;2023-02-04T01:32:16;8.20;69.40
45044;DHT22;30784;48.490;9.688;2023-02-04T01:34:41;8.10;69.30
45044;DHT22;30784;48.490;9.688;2023-02-04T01:37:07;8.10;69.40
45044;DHT22;30784;48.490;9.688;2023-02-04T01:39:32;8.10;69.40
45044;DHT22;30784;48.490;9.688;2023-02-04T01:42:01;8.10;69.30
45044;DHT22;30784;48.490;9.688;2023-02-04T01:44:27;8.10;69.20
45044;DHT22;30784;48.490;9.688;2023-02-04T01:46:53;8.10;69.00
45044;DHT22;30784;48.490;9.688;2023-02-04T01:49:19;8.10;68.90
45044;DHT22;30784;48.490;9.688;2023-02-04T01:51:45;8.10;68.70
45044;DHT22;30784;48.490;9.688;2023-02-04T01:54:11;8.10;68.70
45044;DHT22;30784;48.490;9.688;2023-02-04T01:56:38;8.10;68.60
45044;DHT22;30784;48.490;9.688;2023-02-04T01:59:11;8.10;68.50
45044;DHT22;30784;48.490;9.688;2023-02-04T02:01:40;8.10;68.30
45044;DHT22;30784;48.490;9.688;2023-02-04T02:04:11;8.10;68.30
45044;DHT22;30784;48.490;9.688;2023-02-04T02:06:39;8.10;68.30
45044;DHT22;30784;48.490;9.688;2023-02-04T02:09:06;8.10;68.50
45044;DHT22;30784;48.490;9.688;2023-02-04T02:11:32;8.10;68.70
45044;DHT22;30784;48.490;9.688;2023-02-04T02:13:58;8.10;68.70
45044;DHT22;30784;48.490;9.688;2023-02-04T02:16:24;8.10;68.90
45044;DHT22;30784;48.490;9.688;2023-02-04T02:18:49;8.10;68.90
45044;DHT22;30784;48.490;9.688;2023-02-04T02:21:23;8.00;68.80
45044;DHT22;30784;48.490;9.688;2023-02-04T02:23:54;8.00;68.50
45044;DHT22;30784;48.490;9.688;2023-02-04T02:26:22;8.00;68.50
45044;DHT22;30784;48.490;9.688;2023-02-04T02:28:48;8.00;68.40
45044;DHT22;30784;48.490;9.688;2023-02-04T02:31:15;8.00;68.40
45044;DHT22;30784;48.490;9.688;2023-02-04T02:33:41;7.90;68.40
45044;DHT22;30784;48.490;9.688;2023-02-04T02:36:13;7.90;68.50
45044;DHT22;30784;48.490;9.688;2023-02-04T02:38:39;7.90;68.50
45044;DHT22;30784;48.490;9.688;2023-02-04T02:41:21;7.90;68.50
45044;DHT22;30784;48.490;9.688;2023-02-04T02:43:50;7.80;68.20
45044;DHT22;30784;48.490;9.688;2023-02-04T02:46:19;7.80;68.30
45044;DHT22;30784;48.490;9.688;2023-02-04T02:48:44;7.80;68.40
45044;DHT22;30784;48.490;9.688;2023-02-04T02:51:10;7.80;68.50
45044;DHT22;30784;48.490;9.688;2023-02-04T02:53:41;7.80;68.50
45044;DHT22;30784;48.490;9.688;2023-02-04T02:56:08;7.80;68.40
45044;DHT22;30784;48.490;9.688;2023-02-04T02:58:41;7.80;68.40
45044;DHT22;30784;48.490;9.688;2023-02-04T03:01:12;7.80;68.30
45044;DHT22;30784;48.490;9.688;2023-02-04T03:03:52;7.80;68.20
45044;DHT22;30784;48.490;9.688;2023-02-04T03:06:25;7.80;68.10
45044;DHT22;30784;48.490;9.688;2023-02-04T03:08:52;7.80;68.10
45044;DHT22;30784;48.490;9.688;2023-02-04T03:11:20;7.80;68.20
45044;DHT22;30784;48.490;9.688;2023-02-04T03:13:46;7.80;68.20
45044;DHT22;30784;48.490;9.688;2023-02-04T03:16:12;7.80;68.20
45044;DHT22;30784;48.490;9.688;2023-02-04T03:18:41;7.90;68.10
45044;DHT22;30784;48.490;9.688;2023-02-04T03:21:07;7.80;68.00
45044;DHT22;30784;48.490;9.688;2023-02-04T03:23:36;7.80;68.20
45044;DHT22;30784;48.490;9.688;2023-02-04T03:26:03;7.80;68.00
45044;DHT22;30784;48.490;9.688;2023-02-04T03:28:38;7.80;68.00
45044;DHT22;30784;48.490;9.688;2023-02-04T03:31:04;7.80;68.10
45044;DHT22;30784;48.490;9.688;2023-02-04T03:33:32;7.80;68.10
45044;DHT22;30784;48.490;9.688;2023-02-04T03:36:00;7.80;68.10
45044;DHT22;30784;48.490;9.688;2023-02-04T03:38:26;7.90;68.40
45044;DHT22;30784;48.490;9.688;2023-02-04T03:40:52;7.90;68.00
45044;DHT22;30784;48.490;9.688;2023-02-04T03:43:17;7.90;68.00
45044;DHT22;30784;48.490;9.688;2023-02-04T03:45:43;7.80;68.00
45044;DHT22;30784;48.490;9.688;2023-02-04T03:48:20;7.80;68.10
45044;DHT22;30784;48.490;9.688;2023-02-04T03:50:46;7.80;68.60
45044;DHT22;30784;48.490;9.688;2023-02-04T03:53:12;7.80;68.10
45044;DHT22;30784;48.490;9.688;2023-02-04T03:55:37;7.80;67.80
45044;DHT22;30784;48.490;9.688;2023-02-04T03:58:03;7.80;67.70
45044;DHT22;30784;48.490;9.688;2023-02-04T04:00:29;7.80;67.70
45044;DHT22;30784;48.490;9.688;2023-02-04T04:02:56;7.80;67.70
45044;DHT22;30784;48.490;9.688;2023-02-04T04:05:25;7.80;67.60
45044;DHT22;30784;48.490;9.688;2023-02-04T04:07:54;7.80;67.70
45044;DHT22;30784;48.490;9.688;2023-02-04T04:10:38;7.80;67.70
45044;DHT22;30784;48.490;9.688;2023-02-04T04:13:04;7.80;67.70
45044;DHT22;30784;48.490;9.688;2023-02-04T04:15:29;7.80;67.50
45044;DHT22;30784;48.490;9.688;2023-02-04T04:17:55;7.80;67.50
45044;DHT22;30784;48.490;9.688;2023-02-04T04:20:20;7.80;67.60
45044;DHT22;30784;48.490;9.688;2023-02-04T04:22:50;7.80;68.00
45044;DHT22;30784;48.490;9.688;2023-02-04T04:25:18;7.80;67.50
45044;DHT22;30784;48.490;9.688;2023-02-04T04:27:46;7.80;67.50
45044;DHT22;30784;48.490;9.688;2023-02-04T04:30:12;7.80;67.40
45044;DHT22;30784;48.490;9.688;2023-02-04T04:32:43;7.80;67.40
45044;DHT22;30784;48.490;9.688;2023-02-04T04:35:08;7.70;67.20
45044;DHT22;30784;48.490;9.688;2023-02-04T04:37:34;7.80;67.30
45044;DHT22;30784;48.490;9.688;2023-02-04T04:40:03;7.70;67.10
45044;DHT22;30784;48.490;9.688;2023-02-04T04:42:31;7.70;67.10
45044;DHT22;30784;48.490;9.688;2023-02-04T04:44:57;7.70;67.00
45044;DHT22;30784;48.490;9.688;2023-02-04T04:47:22;7.70;67.10
45044;DHT22;30784;48.490;9.688;2023-02-04T04:49:48;7.70;66.90
45044;DHT22;30784;48.490;9.688;2023-02-04T04:52:13;7.70;66.90
45044;DHT22;30784;48.490;9.688;2023-02-04T04:54:39;7.60;66.80
45044;DHT22;30784;48.490;9.688;2023-02-04T04:57:04;7.60;66.90
45044;DHT22;30784;48.490;9.688;2023-02-04T04:59:30;7.60;66.90
45044;DHT22;30784;48.490;9.688;2023-02-04T05:01:56;7.60;66.90
45044;DHT22;30784;48.490;9.688;2023-02-04T05:04:21;7.60;66.90
45044;DHT22;30784;48.490;9.688;2023-02-04T05:06:47;7.60;67.00
45044;DHT22;30784;48.490;9.688;2023-02-04T05:09:12;7.60;66.70
45044;DHT22;30784;48.490;9.688;2023-02-04T05:11:39;7.60;66.70
45044;DHT22;30784;48.490;9.688;2023-02-04T05:14:05;7.50;66.60
45044;DHT22;30784;48.490;9.688;2023-02-04T05:16:30;7.50;66.60
45044;DHT22;30784;48.490;9.688;2023-02-04T05:18:56;7.50;66.60
45044;DHT22;30784;48.490;9.688;2023-02-04T05:21:21;7.50;66.70
45044;DHT22;30784;48.490;9.688;2023-02-04T05:23:47;7.60;66.80
45044;DHT22;30784;48.490;9.688;2023-02-04T05:26:12;7.60;66.70
45044;DHT22;30784;48.490;9.688;2023-02-04T05:28:38;7.50;66.70
45044;DHT22;30784;48.490;9.688;2023-02-04T05:31:03;7.60;66.70
45044;DHT22;30784;48.490;9.688;2023-02-04T05:33:29;7.60;66.60
45044;DHT22;30784;48.490;9.688;2023-02-04T05:35:54;7.60;66.60
45044;DHT22;30784;48.490;9.688;2023-02-04T05:38:20;7.60;66.60
45044;DHT22;30784;48.490;9.688;2023-02-04T05:40:45;7.60;66.50
45044;DHT22;30784;48.490;9.688;2023-02-04T05:43:11;7.60;66.10
45044;DHT22;30784;48.490;9.688;2023-02-04T05:45:37;7.60;66.10
45044;DHT22;30784;48.490;9.688;2023-02-04T05:48:02;7.60;66.00
45044;DHT22;30784;48.490;9.688;2023-02-04T05:50:28;7.60;66.00
45044;DHT22;30784;48.490;9.688;2023-02-04T05:52:53;7.60;65.90
45044;DHT22;30784;48.490;9.688;2023-02-04T05:55:19;7.60;65.80
45044;DHT22;30784;48.490;9.688;2023-02-04T05:57:45;7.60;65.80
45044;DHT22;30784;48.490;9.688;2023-02-04T06:00:10;7.60;65.60
45044;DHT22;30784;48.490;9.688;2023-02-04T06:02:36;7.60;65.80
45044;DHT22;30784;48.490;9.688;2023-02-04T06:05:02;7.60;65.80
45044;DHT22;30784;48.490;9.688;2023-02-04T06:07:27;7.60;65.80
45044;DHT22;30784;48.490;9.688;2023-02-04T06:09:53;7.50;65.60
45044;DHT22;30784;48.490;9.688;2023-02-04T06:12:18;7.50;65.80
45044;DHT22;30784;48.490;9.688;2023-02-04T06:14:44;7.50;65.80
45044;DHT22;30784;48.490;9.688;2023-02-04T06:17:09;7.50;65.90
45044;DHT22;30784;48.490;9.688;2023-02-04T06:19:35;7.50;65.90
45044;DHT22;30784;48.490;9.688;2023-02-04T06:22:01;7.50;65.80
45044;DHT22;30784;48.490;9.688;2023-02-04T06:24:26;7.50;65.80
45044;DHT22;30784;48.490;9.688;2023-02-04T06:26:52;7.50;65.90
45044;DHT22;30784;48.490;9.688;2023-02-04T06:29:17;7.50;65.80
45044;DHT22;30784;48.490;9.688;2023-02-04T06:31:43;7.50;65.60
45044;DHT22;30784;48.490;9.688;2023-02-04T06:34:09;7.50;65.50
45044;DHT22;30784;48.490;9.688;2023-02-04T06:36:34;7.50;65.60
45044;DHT22;30784;48.490;9.688;2023-02-04T06:39:00;7.50;65.60
45044;DHT22;30784;48.490;9.688;2023-02-04T06:41:25;7.50;65.60
45044;DHT22;30784;48.490;9.688;2023-02-04T06:43:51;7.50;65.80
45044;DHT22;30784;48.490;9.688;2023-02-04T06:46:16;7.50;65.70
45044;DHT22;30784;48.490;9.688;2023-02-04T06:48:42;7.50;65.70
45044;DHT22;30784;48.490;9.688;2023-02-04T06:51:07;7.50;65.70
45044;DHT22;30784;48.490;9.688;2023-02-04T06:53:33;7.50;65.60
45044;DHT22;30784;48.490;9.688;2023-02-04T06:55:59;7.50;65.60
45044;DHT22;30784;48.490;9.688;2023-02-04T06:58:24;7.50;65.70
45044;DHT22;30784;48.490;9.688;2023-02-04T07:00:50;7.50;65.50
45044;DHT22;30784;48.490;9.688;2023-02-04T07:03:16;7.50;65.60
45044;DHT22;30784;48.490;9.688;2023-02-04T07:05:41;7.60;65.60
45044;DHT22;30784;48.490;9.688;2023-02-04T07:08:07;7.50;65.40
45044;DHT22;30784;48.490;9.688;2023-02-04T07:10:32;7.50;65.30
45044;DHT22;30784;48.490;9.688;2023-02-04T07:12:58;7.50;65.20
45044;DHT22;30784;48.490;9.688;2023-02-04T07:15:23;7.50;65.20
45044;DHT22;30784;48.490;9.688;2023-02-04T07:17:49;7.50;65.20
45044;DHT22;30784;48.490;9.688;2023-02-04T07:20:14;7.50;65.30
45044;DHT22;30784;48.490;9.688;2023-02-04T07:22:40;7.50;65.20
45044;DHT22;30784;48.490;9.688;2023-02-04T07:25:07;7.50;65.20
45044;DHT22;30784;48.490;9.688;2023-02-04T07:27:32;7.50;65.20
45044;DHT22;30784;48.490;9.688;2023-02-04T07:29:58;7.50;65.00
45044;DHT22;30784;48.490;9.688;2023-02-04T07:32:23;7.70;65.20
45044;DHT22;30784;48.490;9.688;2023-02-04T07:34:49;7.50;64.90
45044;DHT22;30784;48.490;9.688;2023-02-04T07:37:14;7.50;64.90
45044;DHT22;30784;48.490;9.688;2023-02-04T07:39:40;7.50;64.70
45044;DHT22;30784;48.490;9.688;2023-02-04T07:42:05;7.50;64.60
45044;DHT22;30784;48.490;9.688;2023-02-04T07:44:31;7.50;64.60
45044;DHT22;30784;48.490;9.688;2023-02-04T07:46:57;7.50;64.60
45044;DHT22;30784;48.490;9.688;2023-02-04T07:49:22;7.50;64.40
45044;DHT22;30784;48.490;9.688;2023-02-04T07:51:48;7.40;64.40
45044;DHT22;30784;48.490;9.688;2023-02-04T07:54:13;7.50;64.50
45044;DHT22;30784;48.490;9.688;2023-02-04T07:56:39;7.40;64.40
45044;DHT22;30784;48.490;9.688;2023-02-04T07:59:04;7.40;64.30
45044;DHT22;30784;48.490;9.688;2023-02-04T08:01:30;7.40;64.30
45044;DHT22;30784;48.490;9.688;2023-02-04T08:03:55;7.40;64.20
45044;DHT22;30784;48.490;9.688;2023-02-04T08:06:21;7.40;64.20
45044;DHT22;30784;48.490;9.688;2023-02-04T08:08:47;7.40;64.00
45044;DHT22;30784;48.490;9.688;2023-02-04T08:11:12;7.40;64.10
45044;DHT22;30784;48.490;9.688;2023-02-04T08:13:38;7.40;63.90
45044;DHT22;30784;48.490;9.688;2023-02-04T08:16:04;7.40;64.10
45044;DHT22;30784;48.490;9.688;2023-02-04T08:18:29;7.40;64.20
45044;DHT22;30784;48.490;9.688;2023-02-04T08:20:55;7.30;64.00
45044;DHT22;30784;48.490;9.688;2023-02-04T08:23:20;7.30;63.80
45044;DHT22;30784;48.490;9.688;2023-02-04T08:25:47;7.30;63.80
45044;DHT22;30784;48.490;9.688;2023-02-04T08:28:12;7.30;63.80
45044;DHT22;30784;48.490;9.688;2023-02-04T08:30:38;7.30;63.90
45044;DHT22;30784;48.490;9.688;2023-02-04T08:33:03;7.40;63.90
45044;DHT22;30784;48.490;9.688;2023-02-04T08:35:29;7.40;64.00
45044;DHT22;30784;48.490;9.688;2023-02-04T08:37:54;7.40;63.70
45044;DHT22;30784;48.490;9.688;2023-02-04T08:40:20;7.30;63.60
45044;DHT22;30784;48.490;9.688;2023-02-04T08:42:45;7.40;63.60
45044;DHT22;30784;48.490;9.688;2023-02-04T08:45:11;7.30;63.60
45044;DHT22;30784;48.490;9.688;2023-02-04T08:47:36;7.40;63.70
45044;DHT22;30784;48.490;9.688;2023-02-04T08:50:02;7.40;63.50
45044;DHT22;30784;48.490;9.688;2023-02-04T08:52:28;7.40;63.50
45044;DHT22;30784;48.490;9.688;2023-02-04T08:54:53;7.40;63.40
45044;DHT22;30784;48.490;9.688;2023-02-04T08:57:19;7.40;63.40
45044;DHT22;30784;48.490;9.688;2023-02-04T08:59:44;7.40;63.60
45044;DHT22;30784;48.490;9.688;2023-02-04T09:02:10;7.40;63.50
45044;DHT22;30784;48.490;9.688;2023-02-04T09:04:35;7.40;63.20
45044;DHT22;30784;48.490;9.688;2023-02-04T09:07:01;7.40;63.30
45044;DHT22;30784;48.490;9.688;2023-02-04T09:09:27;7.40;63.40
45044;DHT22;30784;48.490;9.688;2023-02-04T09:11:53;7.40;63.50
45044;DHT22;30784;48.490;9.688;2023-02-04T09:14:18;7.40;63.50
45044;DHT22;30784;48.490;9.688;2023-02-04T09:16:44;7.40;63.60
45044;DHT22;30784;48.490;9.688;2023-02-04T09:19:09;7.50;63.60
45044;DHT22;30784;48.490;9.688;2023-02-04T09:21:37;7.50;63.60
45044;DHT22;30784;48.490;9.688;2023-02-04T09:24:03;7.50;63.30
45044;DHT22;30784;48.490;9.688;2023-02-04T09:26:28;7.50;63.20
45044;DHT22;30784;48.490;9.688;2023-02-04T09:28:54;7.60;63.30
45044;DHT22;30784;48.490;9.688;2023-02-04T09:31:19;7.60;63.10
45044;DHT22;30784;48.490;9.688;2023-02-04T09:33:45;7.60;63.00
45044;DHT22;30784;48.490;9.688;2023-02-04T09:36:10;7.60;63.20
45044;DHT22;30784;48.490;9.688;2023-02-04T09:38:36;7.60;63.00
45044;DHT22;30784;48.490;9.688;2023-02-04T09:41:05;7.70;63.00
45044;DHT22;30784;48.490;9.688;2023-02-04T09:43:34;7.70;62.70
45044;DHT22;30784;48.490;9.688;2023-02-04T09:46:00;7.80;62.50
45044;DHT22;30784;48.490;9.688;2023-02-04T09:48:26;7.80;62.30
45044;DHT22;30784;48.490;9.688;2023-02-04T09:50:56;7.80;62.50
45044;DHT22;30784;48.490;9.688;2023-02-04T09:53:25;7.90;62.50
45044;DHT22;30784;48.490;9.688;2023-02-04T09:55:51;7.90;62.30
45044;DHT22;30784;48.490;9.688;2023-02-04T09:58:19;8.00;62.30
45044;DHT22;30784;48.490;9.688;2023-02-04T10:00:47;8.00;62.10
45044;DHT22;30784;48.490;9.688;2023-02-04T10:03:18;8.10;61.90
45044;DHT22;30784;48.490;9.688;2023-02-04T10:05:46;8.10;62.20
45044;DHT22;30784;48.490;9.688;2023-02-04T10:08:18;8.20;61.70
45044;DHT22;30784;48.490;9.688;2023-02-04T10:10:45;8.20;61.60
45044;DHT22;30784;48.490;9.688;2023-02-04T10:13:20;8.20;61.50
45044;DHT22;30784;48.490;9.688;2023-02-04T10:15:47;8.30;61.10
45044;DHT22;30784;48.490;9.688;2023-02-04T10:18:22;8.30;61.10
45044;DHT22;30784;48.490;9.688;2023-02-04T10:20:48;8.30;61.00
45044;DHT22;30784;48.490;9.688;2023-02-04T10:23:13;8.30;60.70
45044;DHT22;30784;48.490;9.688;2023-02-04T10:25:39;8.30;60.70
45044;DHT22;30784;48.490;9.688;2023-02-04T10:28:05;8.40;61.00
45044;DHT22;30784;48.490;9.688;2023-02-04T10:30:39;8.40;60.90
45044;DHT22;30784;48.490;9.688;2023-02-04T10:33:22;8.50;61.50
45044;DHT22;30784;48.490;9.688;2023-02-04T10:35:51;8.50;62.10
45044;DHT22;30784;48.490;9.688;2023-02-04T10:38:17;8.70;62.30
45044;DHT22;30784;48.490;9.688;2023-02-04T10:40:43;8.80;61.50
45044;DHT22;30784;48.490;9.688;2023-02-04T10:43:14;8.90;60.90
45044;DHT22;30784;48.490;9.688;2023-02-04T10:45:55;9.10;60.60
45044;DHT22;30784;48.490;9.688;2023-02-04T10:48:21;9.20;60.50
45044;DHT22;30784;48.490;9.688;2023-02-04T10:50:47;9.30;60.90
45044;DHT22;30784;48.490;9.688;2023-02-04T10:53:15;9.40;60.90
45044;DHT22;30784;48.490;9.688;2023-02-04T10:56:00;9.60;60.40
45044;DHT22;30784;48.490;9.688;2023-02-04T10:58:28;9.80;59.80
45044;DHT22;30784;48.490;9.688;2023-02-04T11:03:22;10.10;59.20
45044;DHT22;30784;48.490;9.688;2023-02-04T11:05:49;10.30;59.40
45044;DHT22;30784;48.490;9.688;2023-02-04T11:08:28;10.50;59.10
45044;DHT22;30784;48.490;9.688;2023-02-04T11:11:00;10.60;59.40
45044;DHT22;30784;48.490;9.688;2023-02-04T11:16:32;11.00;59.70
45044;DHT22;30784;48.490;9.688;2023-02-04T11:19:05;11.10;59.10
45044;DHT22;30784;48.490;9.688;2023-02-04T11:26:51;11.40;56.30
45044;DHT22;30784;48.490;9.688;2023-02-04T11:29:28;11.50;56.80
45044;DHT22;30784;48.490;9.688;2023-02-04T11:32:02;11.60;56.40
45044;DHT22;30784;48.490;9.688;2023-02-04T11:34:30;11.60;55.90
45044;DHT22;30784;48.490;9.688;2023-02-04T11:39:38;11.60;55.60
45044;DHT22;30784;48.490;9.688;2023-02-04T11:44:42;11.50;55.10
45044;DHT22;30784;48.490;9.688;2023-02-04T11:47:13;11.50;54.50
45044;DHT22;30784;48.490;9.688;2023-02-04T11:49:42;11.50;54.80
45044;DHT22;30784;48.490;9.688;2023-02-04T11:52:13;11.40;54.80
45044;DHT22;30784;48.490;9.688;2023-02-04T11:54:39;11.40;54.20
45044;DHT22;30784;48.490;9.688;2023-02-04T11:57:05;11.30;54.20
45044;DHT22;30784;48.490;9.688;2023-02-04T11:59:31;11.30;54.50
45044;DHT22;30784;48.490;9.688;2023-02-04T12:02:14;11.20;54.50
45044;DHT22;30784;48.490;9.688;2023-02-04T12:04:50;11.10;55.20
45044;DHT22;30784;48.490;9.688;2023-02-04T12:07:20;11.00;54.70
45044;DHT22;30784;48.490;9.688;2023-02-04T12:09:50;11.00;54.80
45044;DHT22;30784;48.490;9.688;2023-02-04T12:12:29;11.00;54.40
45044;DHT22;30784;48.490;9.688;2023-02-04T12:15:08;10.90;54.60
45044;DHT22;30784;48.490;9.688;2023-02-04T12:17:38;10.80;54.40
45044;DHT22;30784;48.490;9.688;2023-02-04T12:20:04;10.80;54.50
45044;DHT22;30784;48.490;9.688;2023-02-04T12:22:31;10.70;54.00
45044;DHT22;30784;48.490;9.688;2023-02-04T12:25:00;10.60;54.10
45044;DHT22;30784;48.490;9.688;2023-02-04T12:27:25;10.50;54.00
45044;DHT22;30784;48.490;9.688;2023-02-04T12:29:51;10.50;54.30
45044;DHT22;30784;48.490;9.688;2023-02-04T12:32:16;10.40;54.20
45044;DHT22;30784;48.490;9.688;2023-02-04T12:34:42;10.40;54.40
45044;DHT22;30784;48.490;9.688;2023-02-04T12:37:07;10.30;54.40
45044;DHT22;30784;48.490;9.688;2023-02-04T12:39:33;10.30;54.40
45044;DHT22;30784;48.490;9.688;2023-02-04T12:41:59;10.30;54.50
45044;DHT22;30784;48.490;9.688;2023-02-04T12:44:24;10.10;54.50
45044;DHT22;30784;48.490;9.688;2023-02-04T12:46:50;10.10;54.30
45044;DHT22;30784;48.490;9.688;2023-02-04T12:49:16;10.10;54.30
45044;DHT22;30784;48.490;9.688;2023-02-04T12:51:41;10.00;54.50
45044;DHT22;30784;48.490;9.688;2023-02-04T12:54:07;10.00;54.60
45044;DHT22;30784;48.490;9.688;2023-02-04T12:56:33;10.00;54.70
45044;DHT22;30784;48.490;9.688;2023-02-04T12:59:04;9.90;54.60
45044;DHT22;30784;48.490;9.688;2023-02-04T13:01:30;10.00;54.70
45044;DHT22;30784;48.490;9.688;2023-02-04T13:03:58;10.00;54.70
45044;DHT22;30784;48.490;9.688;2023-02-04T13:06:26;10.00;54.60
45044;DHT22;30784;48.490;9.688;2023-02-04T13:08:51;10.00;54.70
45044;DHT22;30784;48.490;9.688;2023-02-04T13:11:17;10.00;54.80
45044;DHT22;30784;48.490;9.688;2023-02-04T13:13:45;10.00;54.60
45044;DHT22;30784;48.490;9.688;2023-02-04T13:16:10;10.00;54.40
45044;DHT22;30784;48.490;9.688;2023-02-04T13:18:39;10.00;54.10
45044;DHT22;30784;48.490;9.688;2023-02-04T13:21:04;10.00;54.30
45044;DHT22;30784;48.490;9.688;2023-02-04T13:23:30;10.00;54.00
45044;DHT22;30784;48.490;9.688;2023-02-04T13:25:55;10.00;54.10
45044;DHT22;30784;48.490;9.688;2023-02-04T13:28:21;10.00;54.30
45044;DHT22;30784;48.490;9.688;2023-02-04T13:30:47;10.00;54.10
45044;DHT22;30784;48.490;9.688;2023-02-04T13:33:12;10.10;53.80
45044;DHT22;30784;48.490;9.688;2023-02-04T13:35:38;10.00;54.00
45044;DHT22;30784;48.490;9.688;2023-02-04T13:38:03;10.00;53.80
45044;DHT22;30784;48.490;9.688;2023-02-04T13:40:29;10.00;54.10
45044;DHT22;30784;48.490;9.688;2023-02-04T13:42:54;10.00;53.90
45044;DHT22;30784;48.490;9.688;2023-02-04T13:45:20;9.90;54.00
45044;DHT22;30784;48.490;9.688;2023-02-04T13:47:48;9.90;53.90
45044;DHT22;30784;48.490;9.688;2023-02-04T13:50:15;9.90;53.70
45044;DHT22;30784;48.490;9.688;2023-02-04T13:52:41;9.80;53.80
45044;DHT22;30784;48.490;9.688;2023-02-04T13:55:06;9.80;53.80
45044;DHT22;30784;48.490;9.688;2023-02-04T13:57:32;9.80;53.90
45044;DHT22;30784;48.490;9.688;2023-02-04T13:59:57;9.80;54.10
45044;DHT22;30784;48.490;9.688;2023-02-04T14:02:26;9.80;54.10
45044;DHT22;30784;48.490;9.688;2023-02-04T14:04:51;9.70;53.70
45044;DHT22;30784;48.490;9.688;2023-02-04T14:07:17;9.70;53.70
45044;DHT22;30784;48.490;9.688;2023-02-04T14:09:43;9.70;53.70
45044;DHT22;30784;48.490;9.688;2023-02-04T14:12:08;9.80;53.70
45044;DHT22;30784;48.490;9.688;2023-02-04T14:14:36;9.70;53.80
45044;DHT22;30784;48.490;9.688;2023-02-04T14:17:02;9.70;53.60
45044;DHT22;30784;48.490;9.688;2023-02-04T14:19:27;9.70;53.50
45044;DHT22;30784;48.490;9.688;2023-02-04T14:21:53;9.70;53.70
45044;DHT22;30784;48.490;9.688;2023-02-04T14:24:19;9.70;53.50
45044;DHT22;30784;48.490;9.688;2023-02-04T14:26:45;9.70;53.50
45044;DHT22;30784;48.490;9.688;2023-02-04T14:29:11;9.70;53.80
45044;DHT22;30784;48.490;9.688;2023-02-04T14:31:36;9.70;53.80
45044;DHT22;30784;48.490;9.688;2023-02-04T14:34:02;9.80;54.10
45044;DHT22;30784;48.490;9.688;2023-02-04T14:36:27;9.80;54.20
45044;DHT22;30784;48.490;9.688;2023-02-04T14:38:53;9.90;53.70
45044;DHT22;30784;48.490;9.688;2023-02-04T14:41:22;10.00;53.70
45044;DHT22;30784;48.490;9.688;2023-02-04T14:43:50;10.00;53.50
45044;DHT22;30784;48.490;9.688;2023-02-04T14:46:17;10.00;53.20
45044;DHT22;30784;48.490;9.688;2023-02-04T14:48:43;10.10;53.20
45044;DHT22;30784;48.490;9.688;2023-02-04T14:51:12;10.10;53.00
45044;DHT22;30784;48.490;9.688;2023-02-04T14:53:38;10.10;53.00
45044;DHT22;30784;48.490;9.688;2023-02-04T14:56:04;10.20;52.90
45044;DHT22;30784;48.490;9.688;2023-02-04T14:58:32;10.20;53.00
45044;DHT22;30784;48.490;9.688;2023-02-04T15:01:00;10.20;52.80
45044;DHT22;30784;48.490;9.688;2023-02-04T15:03:26;10.20;52.80
45044;DHT22;30784;48.490;9.688;2023-02-04T15:05:51;10.20;52.50
45044;DHT22;30784;48.490;9.688;2023-02-04T15:08:20;10.20;52.40
45044;DHT22;30784;48.490;9.688;2023-02-04T15:10:45;10.20;52.30
45044;DHT22;30784;48.490;9.688;2023-02-04T15:13:11;10.20;51.90
45044;DHT22;30784;48.490;9.688;2023-02-04T15:15:42;10.20;52.20
45044;DHT22;30784;48.490;9.688;2023-02-04T15:18:08;10.20;52.00
45044;DHT22;30784;48.490;9.688;2023-02-04T15:20:33;10.20;51.80
45044;DHT22;30784;48.490;9.688;2023-02-04T15:22:59;10.10;52.00
45044;DHT22;30784;48.490;9.688;2023-02-04T15:25:28;10.10;52.00
45044;DHT22;30784;48.490;9.688;2023-02-04T15:27:53;10.10;51.90
45044;DHT22;30784;48.490;9.688;2023-02-04T15:30:21;10.00;51.90
45044;DHT22;30784;48.490;9.688;2023-02-04T15:32:47;10.00;51.60
45044;DHT22;30784;48.490;9.688;2023-02-04T15:35:13;9.90;51.70
45044;DHT22;30784;48.490;9.688;2023-02-04T15:37:39;9.80;51.80
45044;DHT22;30784;48.490;9.688;2023-02-04T15:40:05;9.80;51.90
45044;DHT22;30784;48.490;9.688;2023-02-04T15:42:33;9.80;52.10
45044;DHT22;30784;48.490;9.688;2023-02-04T15:44:59;9.70;52.10
45044;DHT22;30784;48.490;9.688;2023-02-04T15:47:24;9.70;52.20
45044;DHT22;30784;48.490;9.688;2023-02-04T15:49:53;9.70;52.10
45044;DHT22;30784;48.490;9.688;2023-02-04T15:52:18;9.60;52.20
45044;DHT22;30784;48.490;9.688;2023-02-04T15:54:44;9.60;52.20
45044;DHT22;30784;48.490;9.688;2023-02-04T15:57:09;9.60;52.30